sensor_id;sensor_type;location;lat;lon;timestamp;pressure;altitude;pressure_sealevel;temperature;humidity
22440;BME280;11387;51.612;7.210;2023-07-20T00:02:11;100526.84;;;16.48;94.89
22440;BME280;11387;51.612;7.210;2023-07-20T00:04:49;100519.91;;;16.54;94.52
22440;BME280;11387;51.612;7.210;2023-07-20T00:07:59;100519.38;;;16.61;92.48
22440;BME280;11387;51.612;7.210;2023-07-20T00:10:43;100511.03;;;16.69;91.41
22440;BME280;11387;51.612;7.210;2023-07-20T00:13:36;100511.84;;;16.70;90.75
22440;BME280;11387;51.612;7.210;2023-07-20T00:16:15;100514.25;;;16.71;90.51
22440;BME280;11387;51.612;7.210;2023-07-20T00:18:58;100504.69;;;16.69;90.42
22440;BME280;11387;51.612;7.210;2023-07-20T00:21:46;100513.91;;;16.73;90.37
22440;BME280;11387;51.612;7.210;2023-07-20T00:24:23;100511.28;;;16.76;89.46
22440;BME280;11387;51.612;7.210;2023-07-20T00:26:55;100511.03;;;16.69;89.83
22440;BME280;11387;51.612;7.210;2023-07-20T00:29:28;100504.91;;;16.64;89.96
22440;BME280;11387;51.612;7.210;2023-07-20T00:32:09;100511.41;;;16.80;89.66
22440;BME280;11387;51.612;7.210;2023-07-20T00:34:54;100495.25;;;16.70;89.95
22440;BME280;11387;51.612;7.210;2023-07-20T00:37:37;100494.19;;;16.62;90.39
22440;BME280;11387;51.612;7.210;2023-07-20T00:40:39;100500.94;;;16.52;91.20
22440;BME280;11387;51.612;7.210;2023-07-20T00:43:16;100503.94;;;16.47;92.24
22440;BME280;11387;51.612;7.210;2023-07-20T00:46:18;100501.38;;;16.42;92.90
22440;BME280;11387;51.612;7.210;2023-07-20T00:49:02;100500.31;;;16.35;93.71
22440;BME280;11387;51.612;7.210;2023-07-20T00:51:48;100500.31;;;16.35;94.41
22440;BME280;11387;51.612;7.210;2023-07-20T00:54:33;100499.03;;;16.32;93.67
22440;BME280;11387;51.612;7.210;2023-07-20T00:57:28;100492.63;;;16.40;94.58
22440;BME280;11387;51.612;7.210;2023-07-20T01:00:23;100498.63;;;16.42;93.78
22440;BME280;11387;51.612;7.210;2023-07-20T01:03:04;100495.25;;;16.37;93.74
22440;BME280;11387;51.612;7.210;2023-07-20T01:05:48;100497.47;;;16.43;93.70
22440;BME280;11387;51.612;7.210;2023-07-20T01:08:47;100491.63;;;16.57;92.65
22440;BME280;11387;51.612;7.210;2023-07-20T01:11:36;100486.78;;;16.54;92.50
22440;BME280;11387;51.612;7.210;2023-07-20T01:14:14;100488.53;;;16.59;92.36
22440;BME280;11387;51.612;7.210;2023-07-20T01:16:48;100492.78;;;16.56;92.11
22440;BME280;11387;51.612;7.210;2023-07-20T01:19:26;100491.97;;;16.56;91.97
22440;BME280;11387;51.612;7.210;2023-07-20T01:22:10;100497.97;;;16.58;92.11
22440;BME280;11387;51.612;7.210;2023-07-20T01:24:56;100495.66;;;16.60;92.24
22440;BME280;11387;51.612;7.210;2023-07-20T01:30:54;100487.59;;;16.55;91.54
22440;BME280;11387;51.612;7.210;2023-07-20T01:33:26;100485.88;;;16.50;91.80
22440;BME280;11387;51.612;7.210;2023-07-20T01:35:57;100479.97;;;16.51;92.17
22440;BME280;11387;51.612;7.210;2023-07-20T01:38:27;100481.50;;;16.49;91.89
22440;BME280;11387;51.612;7.210;2023-07-20T01:40:57;100475.97;;;16.49;91.56
22440;BME280;11387;51.612;7.210;2023-07-20T01:43:25;100473.78;;;16.42;91.94
22440;BME280;11387;51.612;7.210;2023-07-20T01:45:54;100478.22;;;16.35;91.71
22440;BME280;11387;51.612;7.210;2023-07-20T01:48:22;100476.69;;;16.25;92.62
22440;BME280;11387;51.612;7.210;2023-07-20T01:50:53;100480.84;;;16.19;93.18
22440;BME280;11387;51.612;7.210;2023-07-20T01:53:23;100479.63;;;16.08;93.74
22440;BME280;11387;51.612;7.210;2023-07-20T01:55:52;100472.38;;;16.03;94.31
22440;BME280;11387;51.612;7.210;2023-07-20T01:58:21;100481.13;;;16.05;94.80
22440;BME280;11387;51.612;7.210;2023-07-20T02:00:49;100478.97;;;16.11;94.77
22440;BME280;11387;51.612;7.210;2023-07-20T02:03:18;100481.19;;;16.30;94.53
22440;BME280;11387;51.612;7.210;2023-07-20T02:05:49;100479.72;;;16.32;94.25
22440;BME280;11387;51.612;7.210;2023-07-20T02:08:19;100487.78;;;16.37;93.88
22440;BME280;11387;51.612;7.210;2023-07-20T02:10:49;100485.03;;;16.37;94.57
22440;BME280;11387;51.612;7.210;2023-07-20T02:13:17;100490.34;;;16.42;95.42
22440;BME280;11387;51.612;7.210;2023-07-20T02:15:46;100486.19;;;16.36;96.00
22440;BME280;11387;51.612;7.210;2023-07-20T02:18:30;100481.31;;;16.33;96.32
22440;BME280;11387;51.612;7.210;2023-07-20T02:21:00;100486.25;;;16.28;96.39
22440;BME280;11387;51.612;7.210;2023-07-20T02:23:30;100480.72;;;16.28;96.67
22440;BME280;11387;51.612;7.210;2023-07-20T02:26:00;100476.56;;;16.22;97.69
22440;BME280;11387;51.612;7.210;2023-07-20T02:28:28;100483.13;;;16.17;98.21
22440;BME280;11387;51.612;7.210;2023-07-20T02:30:57;100486.91;;;16.12;98.32
22440;BME280;11387;51.612;7.210;2023-07-20T02:33:28;100484.47;;;16.11;98.13
22440;BME280;11387;51.612;7.210;2023-07-20T02:35:56;100490.47;;;16.13;98.16
22440;BME280;11387;51.612;7.210;2023-07-20T02:38:25;100486.69;;;16.17;97.54
22440;BME280;11387;51.612;7.210;2023-07-20T02:40:55;100491.41;;;16.17;97.36
22440;BME280;11387;51.612;7.210;2023-07-20T02:43:23;100493.69;;;16.15;97.70
22440;BME280;11387;51.612;7.210;2023-07-20T02:45:53;100495.31;;;16.16;97.95
22440;BME280;11387;51.612;7.210;2023-07-20T02:48:21;100494.50;;;16.15;98.14
22440;BME280;11387;51.612;7.210;2023-07-20T02:50:50;100481.94;;;16.06;98.74
22440;BME280;11387;51.612;7.210;2023-07-20T02:53:18;100495.72;;;16.06;99.62
22440;BME280;11387;51.612;7.210;2023-07-20T02:55:47;100497.47;;;16.10;99.68
22440;BME280;11387;51.612;7.210;2023-07-20T02:58:17;100501.03;;;16.11;99.83
22440;BME280;11387;51.612;7.210;2023-07-20T03:00:45;100495.53;;;16.11;99.36
22440;BME280;11387;51.612;7.210;2023-07-20T03:03:15;100498.16;;;16.07;99.68
22440;BME280;11387;51.612;7.210;2023-07-20T03:05:44;100504.06;;;15.97;100.00
22440;BME280;11387;51.612;7.210;2023-07-20T03:08:23;100505.50;;;15.82;100.00
22440;BME280;11387;51.612;7.210;2023-07-20T03:10:52;100509.94;;;15.75;100.00
22440;BME280;11387;51.612;7.210;2023-07-20T03:13:21;100516.94;;;15.72;100.00
22440;BME280;11387;51.612;7.210;2023-07-20T03:15:52;100512.94;;;15.61;100.00
22440;BME280;11387;51.612;7.210;2023-07-20T03:18:20;100511.53;;;15.55;100.00
22440;BME280;11387;51.612;7.210;2023-07-20T03:20:49;100511.38;;;15.52;100.00
22440;BME280;11387;51.612;7.210;2023-07-20T03:23:18;100513.50;;;15.46;100.00
22440;BME280;11387;51.612;7.210;2023-07-20T03:25:47;100515.59;;;15.49;100.00
22440;BME280;11387;51.612;7.210;2023-07-20T03:28:15;100511.22;;;15.48;100.00
22440;BME280;11387;51.612;7.210;2023-07-20T03:30:45;100516.75;;;15.48;100.00
22440;BME280;11387;51.612;7.210;2023-07-20T03:33:14;100516.75;;;15.48;100.00
22440;BME280;11387;51.612;7.210;2023-07-20T03:35:43;100522.25;;;15.48;100.00
22440;BME280;11387;51.612;7.210;2023-07-20T03:38:11;100518.84;;;15.51;100.00
22440;BME280;11387;51.612;7.210;2023-07-20T03:40:49;100521.31;;;15.44;100.00
22440;BME280;11387;51.612;7.210;2023-07-20T03:43:17;100527.91;;;15.52;100.00
22440;BME280;11387;51.612;7.210;2023-07-20T03:45:47;100524.53;;;15.46;100.00
22440;BME280;11387;51.612;7.210;2023-07-20T03:48:17;100529.56;;;15.44;100.00
22440;BME280;11387;51.612;7.210;2023-07-20T03:50:46;100527.09;;;15.51;100.00
22440;BME280;11387;51.612;7.210;2023-07-20T03:53:16;100540.41;;;15.49;100.00
22440;BME280;11387;51.612;7.210;2023-07-20T03:55:46;100536.53;;;15.50;100.00
22440;BME280;11387;51.612;7.210;2023-07-20T03:58:15;100541.56;;;15.48;100.00
22440;BME280;11387;51.612;7.210;2023-07-20T04:00:46;100536.03;;;15.48;100.00
22440;BME280;11387;51.612;7.210;2023-07-20T04:03:16;100542.03;;;15.50;100.00
22440;BME280;11387;51.612;7.210;2023-07-20T04:05:45;100545.13;;;15.48;100.00
22440;BME280;11387;51.612;7.210;2023-07-20T04:08:14;100547.41;;;15.46;100.00
22440;BME280;11387;51.612;7.210;2023-07-20T04:10:43;100543.50;;;15.47;100.00
22440;BME280;11387;51.612;7.210;2023-07-20T04:13:13;100545.47;;;15.47;100.00
22440;BME280;11387;51.612;7.210;2023-07-20T04:15:42;100548.72;;;15.40;100.00
22440;BME280;11387;51.612;7.210;2023-07-20T04:18:12;100551.81;;;15.39;100.00
22440;BME280;11387;51.612;7.210;2023-07-20T04:20:40;100559.75;;;15.40;100.00
22440;BME280;11387;51.612;7.210;2023-07-20T04:23:09;100546.31;;;15.39;100.00
22440;BME280;11387;51.612;7.210;2023-07-20T04:25:39;100543.53;;;15.39;100.00
22440;BME280;11387;51.612;7.210;2023-07-20T04:28:08;100550.44;;;15.24;100.00
22440;BME280;11387;51.612;7.210;2023-07-20T04:30:38;100547.38;;;15.26;100.00
22440;BME280;11387;51.612;7.210;2023-07-20T04:33:07;100547.06;;;15.19;100.00
22440;BME280;11387;51.612;7.210;2023-07-20T04:35:50;100547.25;;;15.13;100.00
22440;BME280;11387;51.612;7.210;2023-07-20T04:38:19;100544.63;;;15.17;100.00
22440;BME280;11387;51.612;7.210;2023-07-20T04:41:01;100554.75;;;15.34;100.00
22440;BME280;11387;51.612;7.210;2023-07-20T04:43:29;100556.53;;;15.38;100.00
22440;BME280;11387;51.612;7.210;2023-07-20T04:45:58;100566.22;;;15.44;100.00
22440;BME280;11387;51.612;7.210;2023-07-20T04:48:26;100561.53;;;15.45;100.00
22440;BME280;11387;51.612;7.210;2023-07-20T04:50:56;100561.03;;;15.43;100.00
22440;BME280;11387;51.612;7.210;2023-07-20T04:53:25;100572.56;;;15.45;100.00
22440;BME280;11387;51.612;7.210;2023-07-20T04:55:54;100571.06;;;15.56;100.00
22440;BME280;11387;51.612;7.210;2023-07-20T04:58:22;100568.44;;;15.60;100.00
22440;BME280;11387;51.612;7.210;2023-07-20T05:00:52;100569.34;;;15.72;100.00
22440;BME280;11387;51.612;7.210;2023-07-20T05:03:20;100566.88;;;15.79;100.00
22440;BME280;11387;51.612;7.210;2023-07-20T05:05:49;100576.94;;;15.75;100.00
22440;BME280;11387;51.612;7.210;2023-07-20T05:08:19;100578.38;;;15.81;100.00
22440;BME280;11387;51.612;7.210;2023-07-20T05:10:49;100577.22;;;15.82;100.00
22440;BME280;11387;51.612;7.210;2023-07-20T05:13:18;100582.81;;;15.95;100.00
22440;BME280;11387;51.612;7.210;2023-07-20T05:15:47;100584.94;;;16.19;99.99
22440;BME280;11387;51.612;7.210;2023-07-20T05:18:19;100581.47;;;16.42;98.93
22440;BME280;11387;51.612;7.210;2023-07-20T05:20:48;100584.19;;;16.63;97.27
22440;BME280;11387;51.612;7.210;2023-07-20T05:23:18;100588.84;;;16.71;95.84
22440;BME280;11387;51.612;7.210;2023-07-20T05:25:54;100583.91;;;16.77;92.87
22440;BME280;11387;51.612;7.210;2023-07-20T05:28:23;100594.03;;;16.73;92.44
22440;BME280;11387;51.612;7.210;2023-07-20T05:30:52;100598.28;;;16.70;91.00
22440;BME280;11387;51.612;7.210;2023-07-20T05:33:21;100591.88;;;16.78;90.15
22440;BME280;11387;51.612;7.210;2023-07-20T05:35:50;100600.03;;;16.87;89.42
22440;BME280;11387;51.612;7.210;2023-07-20T05:38:18;100602.00;;;16.87;89.77
22440;BME280;11387;51.612;7.210;2023-07-20T05:40:48;100604.56;;;16.92;89.21
22440;BME280;11387;51.612;7.210;2023-07-20T05:43:17;100603.53;;;16.96;88.71
22440;BME280;11387;51.612;7.210;2023-07-20T05:45:46;100607.56;;;16.99;88.07
22440;BME280;11387;51.612;7.210;2023-07-20T05:48:15;100602.72;;;16.96;87.52
22440;BME280;11387;51.612;7.210;2023-07-20T05:50:44;100613.56;;;17.01;88.03
22440;BME280;11387;51.612;7.210;2023-07-20T05:53:13;100607.25;;;17.12;87.23
22440;BME280;11387;51.612;7.210;2023-07-20T05:55:42;100611.63;;;17.13;86.67
22440;BME280;11387;51.612;7.210;2023-07-20T05:58:12;100606.75;;;16.98;87.68
22440;BME280;11387;51.612;7.210;2023-07-20T06:00:41;100619.31;;;16.96;88.39
22440;BME280;11387;51.612;7.210;2023-07-20T06:03:10;100621.72;;;16.97;87.86
22440;BME280;11387;51.612;7.210;2023-07-20T06:05:39;100610.38;;;17.11;86.55
22440;BME280;11387;51.612;7.210;2023-07-20T06:08:08;100619.47;;;17.24;86.27
22440;BME280;11387;51.612;7.210;2023-07-20T06:10:36;100618.13;;;17.42;84.23
22440;BME280;11387;51.612;7.210;2023-07-20T06:13:05;100618.81;;;17.63;82.75
22440;BME280;11387;51.612;7.210;2023-07-20T06:15:35;100616.88;;;17.88;82.07
22440;BME280;11387;51.612;7.210;2023-07-20T06:18:05;100620.16;;;18.18;80.95
22440;BME280;11387;51.612;7.210;2023-07-20T06:20:34;100630.66;;;18.25;79.67
22440;BME280;11387;51.612;7.210;2023-07-20T06:23:03;100630.09;;;18.19;79.44
22440;BME280;11387;51.612;7.210;2023-07-20T06:25:31;100625.47;;;18.11;79.40
22440;BME280;11387;51.612;7.210;2023-07-20T06:28:00;100631.47;;;18.13;79.06
22440;BME280;11387;51.612;7.210;2023-07-20T06:30:33;100630.88;;;18.32;77.85
22440;BME280;11387;51.612;7.210;2023-07-20T06:33:03;100623.41;;;18.48;76.77
22440;BME280;11387;51.612;7.210;2023-07-20T06:35:33;100630.09;;;18.59;75.96
22440;BME280;11387;51.612;7.210;2023-07-20T06:38:02;100633.69;;;19.03;76.11
22440;BME280;11387;51.612;7.210;2023-07-20T06:40:34;100629.53;;;19.41;73.14
22440;BME280;11387;51.612;7.210;2023-07-20T06:43:03;100634.31;;;19.56;72.03
22440;BME280;11387;51.612;7.210;2023-07-20T06:45:35;100625.69;;;19.61;71.21
22440;BME280;11387;51.612;7.210;2023-07-20T06:48:05;100630.66;;;19.52;70.86
22440;BME280;11387;51.612;7.210;2023-07-20T06:50:34;100634.31;;;19.56;70.93
22440;BME280;11387;51.612;7.210;2023-07-20T06:53:16;100632.66;;;19.39;70.59
22440;BME280;11387;51.612;7.210;2023-07-20T06:55:45;100624.25;;;19.20;71.68
22440;BME280;11387;51.612;7.210;2023-07-20T06:58:18;100635.75;;;18.91;71.80
22440;BME280;11387;51.612;7.210;2023-07-20T07:00:49;100645.63;;;18.76;72.28
22440;BME280;11387;51.612;7.210;2023-07-20T07:03:19;100641.31;;;18.63;72.82
22440;BME280;11387;51.612;7.210;2023-07-20T07:05:55;100635.78;;;18.38;72.83
22440;BME280;11387;51.612;7.210;2023-07-20T07:08:23;100637.47;;;18.15;74.36
22440;BME280;11387;51.612;7.210;2023-07-20T07:10:52;100645.09;;;18.06;75.70
22440;BME280;11387;51.612;7.210;2023-07-20T07:13:21;100650.16;;;18.04;76.35
22440;BME280;11387;51.612;7.210;2023-07-20T07:15:51;100649.34;;;18.15;76.05
22440;BME280;11387;51.612;7.210;2023-07-20T07:18:23;100652.88;;;18.40;74.10
22440;BME280;11387;51.612;7.210;2023-07-20T07:20:52;100656.03;;;18.67;73.57
22440;BME280;11387;51.612;7.210;2023-07-20T07:23:21;100657.31;;;18.69;74.18
22440;BME280;11387;51.612;7.210;2023-07-20T07:25:50;100652.84;;;18.93;73.43
22440;BME280;11387;51.612;7.210;2023-07-20T07:28:19;100659.81;;;19.02;72.25
22440;BME280;11387;51.612;7.210;2023-07-20T07:30:47;100666.06;;;18.99;71.57
22440;BME280;11387;51.612;7.210;2023-07-20T07:33:16;100671.63;;;18.99;71.33
22440;BME280;11387;51.612;7.210;2023-07-20T07:35:46;100677.81;;;19.08;70.68
22440;BME280;11387;51.612;7.210;2023-07-20T07:38:15;100660.88;;;19.26;69.56
22440;BME280;11387;51.612;7.210;2023-07-20T07:41:03;100660.72;;;19.06;67.15
22440;BME280;11387;51.612;7.210;2023-07-20T07:43:32;100666.84;;;19.43;68.00
22440;BME280;11387;51.612;7.210;2023-07-20T07:46:02;100658.56;;;19.75;68.11
22440;BME280;11387;51.612;7.210;2023-07-20T07:48:31;100664.69;;;20.00;66.48
22440;BME280;11387;51.612;7.210;2023-07-20T07:51:01;100664.53;;;20.43;64.48
22440;BME280;11387;51.612;7.210;2023-07-20T07:53:30;100664.63;;;20.66;62.31
22440;BME280;11387;51.612;7.210;2023-07-20T07:55:59;100670.31;;;20.73;61.57
22440;BME280;11387;51.612;7.210;2023-07-20T07:58:28;100672.34;;;20.96;60.49
22440;BME280;11387;51.612;7.210;2023-07-20T08:00:57;100674.91;;;20.85;60.52
22440;BME280;11387;51.612;7.210;2023-07-20T08:03:26;100672.50;;;20.64;60.68
22440;BME280;11387;51.612;7.210;2023-07-20T08:05:55;100679.44;;;21.32;58.86
22440;BME280;11387;51.612;7.210;2023-07-20T08:08:26;100675.75;;;21.73;57.25
22440;BME280;11387;51.612;7.210;2023-07-20T08:10:55;100670.84;;;23.02;55.40
22440;BME280;11387;51.612;7.210;2023-07-20T08:13:23;100671.88;;;24.19;50.85
22440;BME280;11387;51.612;7.210;2023-07-20T08:15:52;100678.03;;;25.58;47.96
22440;BME280;11387;51.612;7.210;2023-07-20T08:18:22;100672.16;;;26.97;43.67
22440;BME280;11387;51.612;7.210;2023-07-20T08:20:50;100675.34;;;27.68;41.25
22440;BME280;11387;51.612;7.210;2023-07-20T08:23:19;100676.03;;;28.24;38.17
22440;BME280;11387;51.612;7.210;2023-07-20T08:25:49;100683.22;;;27.25;37.47
22440;BME280;11387;51.612;7.210;2023-07-20T08:28:18;100687.94;;;27.98;37.20
22440;BME280;11387;51.612;7.210;2023-07-20T08:30:48;100685.25;;;29.27;35.77
22440;BME280;11387;51.612;7.210;2023-07-20T08:33:18;100690.44;;;29.82;34.59
22440;BME280;11387;51.612;7.210;2023-07-20T08:35:47;100692.44;;;30.28;33.55
22440;BME280;11387;51.612;7.210;2023-07-20T08:38:16;100697.38;;;31.23;31.73
22440;BME280;11387;51.612;7.210;2023-07-20T08:40:46;100690.84;;;32.69;30.37
22440;BME280;11387;51.612;7.210;2023-07-20T08:43:16;100681.00;;;32.44;30.56
22440;BME280;11387;51.612;7.210;2023-07-20T08:45:46;100687.84;;;30.58;32.98
22440;BME280;11387;51.612;7.210;2023-07-20T08:48:18;100695.38;;;28.15;36.67
22440;BME280;11387;51.612;7.210;2023-07-20T08:50:47;100696.84;;;26.14;41.16
22440;BME280;11387;51.612;7.210;2023-07-20T08:53:18;100698.34;;;25.05;42.74
22440;BME280;11387;51.612;7.210;2023-07-20T08:55:50;100697.50;;;26.79;38.57
22440;BME280;11387;51.612;7.210;2023-07-20T08:58:23;100698.53;;;29.26;34.09
22440;BME280;11387;51.612;7.210;2023-07-20T09:00:54;100694.22;;;31.73;30.07
22440;BME280;11387;51.612;7.210;2023-07-20T09:03:23;100687.56;;;33.25;26.92
22440;BME280;11387;51.612;7.210;2023-07-20T09:05:53;100687.16;;;34.46;26.52
22440;BME280;11387;51.612;7.210;2023-07-20T09:08:22;100689.59;;;34.78;25.93
22440;BME280;11387;51.612;7.210;2023-07-20T09:10:52;100694.66;;;35.76;25.70
22440;BME280;11387;51.612;7.210;2023-07-20T09:13:24;100686.56;;;34.73;25.42
22440;BME280;11387;51.612;7.210;2023-07-20T09:15:55;100689.00;;;32.17;29.18
22440;BME280;11387;51.612;7.210;2023-07-20T09:18:24;100684.59;;;29.15;34.03
22440;BME280;11387;51.612;7.210;2023-07-20T09:20:58;100691.78;;;27.04;36.94
22440;BME280;11387;51.612;7.210;2023-07-20T09:23:32;100700.88;;;25.64;39.71
22440;BME280;11387;51.612;7.210;2023-07-20T09:26:09;100693.19;;;25.25;41.13
22440;BME280;11387;51.612;7.210;2023-07-20T09:28:43;100695.31;;;27.81;37.04
22440;BME280;11387;51.612;7.210;2023-07-20T09:31:18;100697.44;;;30.64;32.19
22440;BME280;11387;51.612;7.210;2023-07-20T09:33:47;100688.78;;;31.95;28.75
22440;BME280;11387;51.612;7.210;2023-07-20T09:36:19;100696.28;;;33.94;25.05
22440;BME280;11387;51.612;7.210;2023-07-20T09:39:08;100692.22;;;34.29;23.48
22440;BME280;11387;51.612;7.210;2023-07-20T09:42:04;100695.03;;;35.48;22.78
22440;BME280;11387;51.612;7.210;2023-07-20T09:44:38;100685.22;;;36.98;20.27
22440;BME280;11387;51.612;7.210;2023-07-20T09:47:10;100684.47;;;36.43;20.91
22440;BME280;11387;51.612;7.210;2023-07-20T09:49:39;100680.78;;;37.39;21.11
22440;BME280;11387;51.612;7.210;2023-07-20T09:52:12;100680.31;;;37.74;20.39
22440;BME280;11387;51.612;7.210;2023-07-20T09:55:02;100676.91;;;37.09;20.32
22440;BME280;11387;51.612;7.210;2023-07-20T09:57:33;100686.19;;;33.67;23.17
22440;BME280;11387;51.612;7.210;2023-07-20T10:00:05;100688.66;;;31.18;25.80
22440;BME280;11387;51.612;7.210;2023-07-20T10:02:44;100681.53;;;31.09;26.36
22440;BME280;11387;51.612;7.210;2023-07-20T10:05:14;100673.94;;;33.20;24.17
22440;BME280;11387;51.612;7.210;2023-07-20T10:07:44;100683.25;;;34.96;21.61
22440;BME280;11387;51.612;7.210;2023-07-20T10:10:16;100678.84;;;35.75;20.65
22440;BME280;11387;51.612;7.210;2023-07-20T10:12:47;100683.38;;;36.50;21.15
22440;BME280;11387;51.612;7.210;2023-07-20T10:15:22;100680.00;;;35.96;22.02
22440;BME280;11387;51.612;7.210;2023-07-20T10:18:02;100679.28;;;37.20;20.22
22440;BME280;11387;51.612;7.210;2023-07-20T10:20:35;100680.22;;;37.59;19.58
22440;BME280;11387;51.612;7.210;2023-07-20T10:23:04;100681.13;;;37.65;18.80
22440;BME280;11387;51.612;7.210;2023-07-20T10:25:33;100686.53;;;38.20;18.70
22440;BME280;11387;51.612;7.210;2023-07-20T10:28:05;100680.41;;;38.66;18.31
22440;BME280;11387;51.612;7.210;2023-07-20T10:30:36;100682.97;;;38.25;19.09
22440;BME280;11387;51.612;7.210;2023-07-20T10:33:28;100681.09;;;36.90;18.89
22440;BME280;11387;51.612;7.210;2023-07-20T10:36:01;100679.16;;;33.85;22.11
22440;BME280;11387;51.612;7.210;2023-07-20T10:38:38;100665.19;;;32.60;24.70
22440;BME280;11387;51.612;7.210;2023-07-20T10:41:18;100660.75;;;33.89;23.58
22440;BME280;11387;51.612;7.210;2023-07-20T10:43:48;100663.47;;;33.67;23.05
22440;BME280;11387;51.612;7.210;2023-07-20T10:46:41;100668.63;;;36.05;20.67
22440;BME280;11387;51.612;7.210;2023-07-20T10:49:12;100662.78;;;37.57;20.10
22440;BME280;11387;51.612;7.210;2023-07-20T10:51:43;100660.72;;;37.25;19.61
22440;BME280;11387;51.612;7.210;2023-07-20T10:54:34;100672.00;;;34.93;21.27
22440;BME280;11387;51.612;7.210;2023-07-20T10:57:21;100661.00;;;32.23;24.11
22440;BME280;11387;51.612;7.210;2023-07-20T10:59:50;100661.53;;;32.46;25.01
22440;BME280;11387;51.612;7.210;2023-07-20T11:02:21;100657.41;;;34.38;23.12
22440;BME280;11387;51.612;7.210;2023-07-20T11:04:53;100658.91;;;35.66;21.13
22440;BME280;11387;51.612;7.210;2023-07-20T11:07:36;100659.59;;;36.62;20.42
22440;BME280;11387;51.612;7.210;2023-07-20T11:10:15;100654.13;;;37.75;18.89
22440;BME280;11387;51.612;7.210;2023-07-20T11:13:17;100652.41;;;37.93;19.46
22440;BME280;11387;51.612;7.210;2023-07-20T11:15:46;100648.69;;;38.01;17.60
22440;BME280;11387;51.612;7.210;2023-07-20T11:18:16;100638.94;;;36.94;18.78
22440;BME280;11387;51.612;7.210;2023-07-20T11:20:50;100638.63;;;37.34;18.57
22440;BME280;11387;51.612;7.210;2023-07-20T11:23:19;100645.03;;;38.25;17.62
22440;BME280;11387;51.612;7.210;2023-07-20T11:25:48;100637.31;;;38.69;17.58
22440;BME280;11387;51.612;7.210;2023-07-20T11:28:17;100637.53;;;39.86;15.97
22440;BME280;11387;51.612;7.210;2023-07-20T11:30:51;100628.38;;;38.53;16.67
22440;BME280;11387;51.612;7.210;2023-07-20T11:33:22;100631.63;;;39.19;16.77
22440;BME280;11387;51.612;7.210;2023-07-20T11:35:50;100624.22;;;39.83;15.75
22440;BME280;11387;51.612;7.210;2023-07-20T11:38:20;100624.13;;;40.38;15.24
22440;BME280;11387;51.612;7.210;2023-07-20T11:40:48;100624.63;;;40.88;14.98
22440;BME280;11387;51.612;7.210;2023-07-20T11:43:17;100618.53;;;40.03;16.04
22440;BME280;11387;51.612;7.210;2023-07-20T11:45:48;100621.28;;;39.22;16.54
22440;BME280;11387;51.612;7.210;2023-07-20T11:48:17;100621.53;;;38.74;16.00
22440;BME280;11387;51.612;7.210;2023-07-20T11:50:48;100616.66;;;38.21;16.77
22440;BME280;11387;51.612;7.210;2023-07-20T11:53:17;100615.09;;;38.35;17.00
22440;BME280;11387;51.612;7.210;2023-07-20T11:55:46;100616.03;;;37.13;18.63
22440;BME280;11387;51.612;7.210;2023-07-20T11:58:14;100611.53;;;38.55;16.63
22440;BME280;11387;51.612;7.210;2023-07-20T12:00:44;100612.53;;;38.52;17.28
22440;BME280;11387;51.612;7.210;2023-07-20T12:03:13;100617.72;;;39.27;16.76
22440;BME280;11387;51.612;7.210;2023-07-20T12:05:42;100613.31;;;36.85;18.26
22440;BME280;11387;51.612;7.210;2023-07-20T12:08:29;100610.72;;;33.83;20.77
22440;BME280;11387;51.612;7.210;2023-07-20T12:10:57;100606.31;;;33.56;20.77
22440;BME280;11387;51.612;7.210;2023-07-20T12:13:35;100604.81;;;35.66;18.51
22440;BME280;11387;51.612;7.210;2023-07-20T12:16:09;100598.25;;;37.27;17.73
22440;BME280;11387;51.612;7.210;2023-07-20T12:18:39;100595.41;;;37.27;16.92
22440;BME280;11387;51.612;7.210;2023-07-20T12:21:10;100597.81;;;38.29;17.58
22440;BME280;11387;51.612;7.210;2023-07-20T12:23:41;100594.09;;;37.99;17.17
22440;BME280;11387;51.612;7.210;2023-07-20T12:26:10;100594.47;;;36.79;18.82
22440;BME280;11387;51.612;7.210;2023-07-20T12:28:39;100595.00;;;38.44;17.64
22440;BME280;11387;51.612;7.210;2023-07-20T12:31:09;100601.66;;;37.40;18.57
22440;BME280;11387;51.612;7.210;2023-07-20T12:33:41;100590.28;;;35.24;19.94
22440;BME280;11387;51.612;7.210;2023-07-20T12:36:10;100592.38;;;34.62;20.45
22440;BME280;11387;51.612;7.210;2023-07-20T12:38:40;100590.44;;;35.21;20.09
22440;BME280;11387;51.612;7.210;2023-07-20T12:41:10;100589.34;;;36.31;20.08
22440;BME280;11387;51.612;7.210;2023-07-20T12:43:41;100584.88;;;34.77;20.64
22440;BME280;11387;51.612;7.210;2023-07-20T12:46:11;100590.03;;;34.69;21.06
22440;BME280;11387;51.612;7.210;2023-07-20T12:48:55;100577.16;;;36.91;19.42
22440;BME280;11387;51.612;7.210;2023-07-20T12:51:24;100583.94;;;38.52;16.94
22440;BME280;11387;51.612;7.210;2023-07-20T12:53:54;100573.38;;;38.28;16.79
22440;BME280;11387;51.612;7.210;2023-07-20T12:56:23;100566.91;;;38.57;15.76
22440;BME280;11387;51.612;7.210;2023-07-20T12:58:55;100574.56;;;38.36;17.32
22440;BME280;11387;51.612;7.210;2023-07-20T13:01:23;100575.63;;;38.98;15.79
22440;BME280;11387;51.612;7.210;2023-07-20T13:03:52;100562.72;;;39.98;14.80
22440;BME280;11387;51.612;7.210;2023-07-20T13:06:24;100568.88;;;38.22;15.39
22440;BME280;11387;51.612;7.210;2023-07-20T13:08:56;100562.34;;;34.08;19.37
22440;BME280;11387;51.612;7.210;2023-07-20T13:11:25;100565.00;;;34.77;20.17
22440;BME280;11387;51.612;7.210;2023-07-20T13:13:54;100560.84;;;36.92;19.17
22440;BME280;11387;51.612;7.210;2023-07-20T13:16:23;100556.00;;;38.02;17.03
22440;BME280;11387;51.612;7.210;2023-07-20T13:18:52;100548.41;;;37.99;16.83